createdAt,value
2018-07-06T00:02:34.030Z,19.41
2018-07-06T00:05:12.588Z,19.36
2018-07-06T00:07:51.014Z,19.41
2018-07-06T00:10:29.531Z,19.34
2018-07-06T00:13:08.120Z,19.31
2018-07-06T00:15:46.511Z,19.09
2018-07-06T00:18:24.859Z,19.04
2018-07-06T00:21:03.220Z,19.00
2018-07-06T00:23:41.739Z,18.99
2018-07-06T00:26:20.244Z,19.06
2018-07-06T00:28:58.915Z,19.02
2018-07-06T00:31:37.364Z,18.92
2018-07-06T00:34:15.759Z,18.96
2018-07-06T00:36:54.367Z,18.92
2018-07-06T00:39:32.944Z,18.89
2018-07-06T00:42:11.516Z,18.81
2018-07-06T00:44:50.052Z,18.83
2018-07-06T00:47:28.560Z,18.71
2018-07-06T00:50:07.051Z,18.68
2018-07-06T00:52:45.352Z,18.65
2018-07-06T00:55:23.837Z,18.77
2018-07-06T00:58:02.259Z,18.70
2018-07-06T01:00:40.542Z,18.76
2018-07-06T01:03:19.072Z,18.79
2018-07-06T01:05:57.516Z,18.72
2018-07-06T01:08:36.123Z,18.68
2018-07-06T01:11:14.611Z,18.67
2018-07-06T01:13:53.088Z,18.83
2018-07-06T01:16:31.507Z,18.99
2018-07-06T01:19:10.029Z,18.93
2018-07-06T01:21:48.517Z,19.10
2018-07-06T01:24:27.056Z,18.95
2018-07-06T01:27:05.484Z,18.70
2018-07-06T01:29:44.092Z,18.89
2018-07-06T01:32:22.715Z,18.92
2018-07-06T01:35:01.240Z,19.14
2018-07-06T01:37:39.687Z,19.58
2018-07-06T01:40:18.167Z,19.42
2018-07-06T01:42:56.632Z,19.41
2018-07-06T01:45:35.095Z,19.27
2018-07-06T01:48:13.531Z,19.41
2018-07-06T01:50:52.033Z,19.35
2018-07-06T01:53:30.627Z,19.39
2018-07-06T01:56:09.180Z,19.33
2018-07-06T01:58:47.750Z,19.32
2018-07-06T02:01:26.088Z,19.35
2018-07-06T02:04:04.703Z,19.44
2018-07-06T02:06:43.201Z,19.91
2018-07-06T02:09:24.047Z,20.09
2018-07-06T02:12:02.480Z,19.60
2018-07-06T02:14:40.991Z,19.37
2018-07-06T02:17:19.383Z,19.42
2018-07-06T02:19:57.895Z,19.49
2018-07-06T02:22:36.427Z,19.47
2018-07-06T02:25:14.867Z,19.42
2018-07-06T02:27:53.423Z,19.53
2018-07-06T02:30:31.987Z,19.46
2018-07-06T02:33:10.532Z,19.34
2018-07-06T02:35:48.984Z,19.26
2018-07-06T02:38:27.342Z,19.63
2018-07-06T02:41:05.733Z,19.11
2018-07-06T02:43:44.223Z,18.98
2018-07-06T02:46:22.727Z,18.87
2018-07-06T02:49:01.080Z,18.94
2018-07-06T02:51:39.707Z,18.71
2018-07-06T02:54:18.295Z,18.47
2018-07-06T02:56:56.807Z,18.36
2018-07-06T02:59:35.407Z,18.48
2018-07-06T03:02:13.911Z,18.52
2018-07-06T03:04:52.393Z,18.50
2018-07-06T03:07:30.811Z,18.55
2018-07-06T03:10:09.357Z,18.52
2018-07-06T03:12:47.847Z,18.54
2018-07-06T03:15:26.393Z,18.52
2018-07-06T03:18:04.806Z,18.47
2018-07-06T03:20:43.287Z,18.47
2018-07-06T03:23:21.754Z,18.51
2018-07-06T03:26:00.075Z,18.50
2018-07-06T03:28:38.696Z,18.48
2018-07-06T03:31:17.010Z,18.44
2018-07-06T03:33:55.657Z,18.54
2018-07-06T03:36:33.968Z,18.79
2018-07-06T03:39:12.335Z,18.49
2018-07-06T03:41:50.859Z,18.47
2018-07-06T03:44:29.291Z,18.74
2018-07-06T03:47:07.859Z,18.45
2018-07-06T03:49:46.358Z,18.59
2018-07-06T03:52:24.999Z,18.79
2018-07-06T03:55:03.565Z,18.56
2018-07-06T03:57:42.131Z,18.45
2018-07-06T04:00:20.549Z,18.41
2018-07-06T04:02:59.087Z,18.54
2018-07-06T04:05:37.596Z,18.91
2018-07-06T04:08:16.035Z,18.72
2018-07-06T04:10:54.407Z,19.38
2018-07-06T04:13:32.975Z,19.02
2018-07-06T04:16:11.447Z,19.11
2018-07-06T04:18:49.840Z,19.56
2018-07-06T04:21:28.605Z,19.33
2018-07-06T04:24:07.114Z,19.42
2018-07-06T04:26:45.652Z,19.36
2018-07-06T04:29:24.146Z,19.41
2018-07-06T04:32:02.554Z,19.29
2018-07-06T04:34:41.007Z,19.77
2018-07-06T04:37:19.544Z,19.38
2018-07-06T04:39:57.951Z,19.44
2018-07-06T04:42:36.479Z,19.52
2018-07-06T04:45:14.852Z,19.49
2018-07-06T04:47:53.363Z,19.55
2018-07-06T04:50:32.011Z,19.44
2018-07-06T04:53:10.288Z,19.46
2018-07-06T04:55:48.783Z,19.50
2018-07-06T04:58:27.167Z,19.72
2018-07-06T05:01:05.715Z,19.64
2018-07-06T05:03:44.258Z,19.69
2018-07-06T05:06:22.820Z,19.88
2018-07-06T05:09:01.293Z,19.98
2018-07-06T05:11:39.654Z,20.18
2018-07-06T05:14:18.243Z,20.06
2018-07-06T05:16:56.676Z,19.74
2018-07-06T05:19:36.199Z,19.94
2018-07-06T05:22:14.763Z,19.72
2018-07-06T05:24:53.161Z,19.68
2018-07-06T05:27:31.648Z,19.72
2018-07-06T05:30:10.195Z,19.74
2018-07-06T05:32:48.728Z,19.75
2018-07-06T05:35:27.132Z,20.21
2018-07-06T05:38:05.663Z,20.31
2018-07-06T05:40:44.056Z,20.56
2018-07-06T05:43:22.527Z,20.58
2018-07-06T05:46:00.907Z,20.61
2018-07-06T05:48:39.412Z,20.80
2018-07-06T05:51:17.940Z,20.97
2018-07-06T05:53:56.549Z,20.82
2018-07-06T05:56:35.122Z,20.72
2018-07-06T05:59:13.703Z,20.81
2018-07-06T06:01:52.204Z,20.64
2018-07-06T06:04:30.624Z,21.04
2018-07-06T06:07:09.128Z,21.15
2018-07-06T06:09:35.978Z,20.99
2018-07-06T06:12:02.870Z,20.87
2018-07-06T06:14:29.731Z,21.44
2018-07-06T06:16:56.600Z,21.66
2018-07-06T06:19:23.462Z,21.21
2018-07-06T06:21:50.320Z,21.33
2018-07-06T06:24:17.175Z,21.92
2018-07-06T06:26:44.027Z,21.90
2018-07-06T06:29:10.887Z,22.05
2018-07-06T06:31:37.771Z,22.20
2018-07-06T06:34:04.627Z,22.61
2018-07-06T06:36:32.110Z,22.26
2018-07-06T06:38:58.990Z,22.31
2018-07-06T06:41:25.859Z,22.38
2018-07-06T06:43:52.732Z,22.67
2018-07-06T06:46:19.591Z,23.44
2018-07-06T06:48:46.573Z,23.77
2018-07-06T06:51:13.446Z,24.16
2018-07-06T06:53:40.595Z,24.33
2018-07-06T06:56:08.902Z,24.09
2018-07-06T06:58:41.259Z,24.44
2018-07-06T07:01:09.210Z,23.90
2018-07-06T07:03:36.185Z,23.48
2018-07-06T07:06:03.061Z,23.47
2018-07-06T07:08:29.935Z,23.69
2018-07-06T07:10:56.995Z,24.15
2018-07-06T07:13:23.854Z,24.95
2018-07-06T07:15:50.723Z,25.13
2018-07-06T07:18:17.663Z,25.30
2018-07-06T07:20:44.583Z,24.93
2018-07-06T07:23:11.671Z,25.51
2018-07-06T07:25:38.544Z,25.85
2018-07-06T07:28:05.427Z,26.06
2018-07-06T07:30:32.298Z,26.18
2018-07-06T07:32:59.218Z,26.13
2018-07-06T07:35:26.121Z,25.82
2018-07-06T07:37:53.120Z,25.82
2018-07-06T07:40:19.995Z,25.80
2018-07-06T07:42:46.864Z,25.52
2018-07-06T07:45:13.743Z,25.85
2018-07-06T07:47:40.619Z,25.21
2018-07-06T07:50:07.478Z,26.21
2018-07-06T07:52:45.930Z,26.40
2018-07-06T07:55:12.837Z,26.76
2018-07-06T07:57:39.671Z,26.15
2018-07-06T08:00:06.538Z,25.01
2018-07-06T08:02:33.491Z,24.81
2018-07-06T08:05:00.351Z,25.87
2018-07-06T08:07:27.211Z,26.25
2018-07-06T08:09:54.072Z,26.09
2018-07-06T08:12:20.947Z,26.56
2018-07-06T08:14:48.079Z,26.88
2018-07-06T08:17:14.944Z,26.92
2018-07-06T08:19:41.828Z,26.78
2018-07-06T08:22:08.688Z,27.40
2018-07-06T08:24:35.564Z,28.57
2018-07-06T08:27:02.485Z,28.89
2018-07-06T08:29:29.401Z,28.56
2018-07-06T08:31:56.320Z,28.18
2018-07-06T08:34:34.681Z,27.60
2018-07-06T08:37:33.259Z,28.11
2018-07-06T08:40:00.203Z,27.75
2018-07-06T08:42:30.196Z,28.88
2018-07-06T08:44:57.908Z,28.36
2018-07-06T08:47:24.811Z,27.12
2018-07-06T08:49:52.147Z,28.02
2018-07-06T08:52:19.295Z,27.27
2018-07-06T08:54:46.431Z,27.04
2018-07-06T08:57:13.435Z,26.04
2018-07-06T08:59:40.332Z,24.36
2018-07-06T09:02:07.228Z,23.96
2018-07-06T09:04:34.179Z,24.10
2018-07-06T09:07:00.950Z,25.10
2018-07-06T09:09:28.135Z,25.86
2018-07-06T09:11:54.963Z,26.49
2018-07-06T09:14:22.066Z,26.72
2018-07-06T09:16:49.265Z,26.57
2018-07-06T09:19:16.165Z,26.51
2018-07-06T09:21:43.031Z,26.32
2018-07-06T09:24:09.902Z,26.53
2018-07-06T09:26:36.779Z,26.98
2018-07-06T09:29:03.676Z,27.13
2018-07-06T09:31:30.563Z,27.78
2018-07-06T09:33:57.447Z,25.95
2018-07-06T09:36:24.336Z,25.64
2018-07-06T09:38:51.248Z,26.11
2018-07-06T09:41:18.210Z,25.49
2018-07-06T09:43:45.748Z,25.87
2018-07-06T09:46:12.619Z,25.40
2018-07-06T09:48:40.043Z,26.03
2018-07-06T09:51:06.911Z,27.18
2018-07-06T09:53:33.792Z,27.31
2018-07-06T09:56:00.676Z,27.24
2018-07-06T09:58:27.598Z,28.26
2018-07-06T10:00:58.783Z,28.07
2018-07-06T10:03:26.231Z,26.93
2018-07-06T10:05:53.221Z,26.52
2018-07-06T10:08:20.148Z,26.87
2018-07-06T10:10:47.015Z,27.51
2018-07-06T10:13:13.954Z,28.87
2018-07-06T10:15:40.807Z,29.41
2018-07-06T10:18:07.736Z,29.49
2018-07-06T10:20:34.584Z,29.18
2018-07-06T10:23:01.488Z,28.61
2018-07-06T10:25:28.351Z,27.64
2018-07-06T10:28:04.427Z,27.96
2018-07-06T10:30:39.627Z,28.86
2018-07-06T10:33:07.228Z,29.50
2018-07-06T10:35:34.080Z,28.30
2018-07-06T10:38:00.962Z,27.17
2018-07-06T10:40:27.875Z,26.96
2018-07-06T10:42:54.743Z,27.40
2018-07-06T10:45:21.642Z,28.11
2018-07-06T10:47:48.511Z,27.92
2018-07-06T10:50:15.379Z,27.72
2018-07-06T10:52:42.244Z,28.03
2018-07-06T10:55:09.135Z,28.37
2018-07-06T10:57:36.011Z,27.97
2018-07-06T11:00:02.915Z,27.61
2018-07-06T11:02:29.827Z,27.71
2018-07-06T11:04:56.782Z,27.47
2018-07-06T11:07:23.634Z,27.91
2018-07-06T11:09:50.544Z,27.91
2018-07-06T11:12:17.426Z,28.35
2018-07-06T11:14:44.335Z,28.23
2018-07-06T11:17:11.199Z,28.63
2018-07-06T11:19:38.115Z,28.36
2018-07-06T11:22:04.967Z,27.48
2018-07-06T11:24:31.833Z,26.73
2018-07-06T11:26:58.691Z,26.68
2018-07-06T11:29:25.627Z,26.10
2018-07-06T11:31:52.530Z,25.78
2018-07-06T11:34:19.387Z,25.74
2018-07-06T11:36:46.249Z,26.48
2018-07-06T11:39:13.142Z,27.16
2018-07-06T11:41:40.000Z,27.50
2018-07-06T11:44:06.983Z,27.92
2018-07-06T11:46:33.844Z,28.08
2018-07-06T11:49:00.731Z,28.36
2018-07-06T11:51:28.707Z,28.53
2018-07-06T11:53:55.618Z,27.97
2018-07-06T11:56:22.463Z,27.61
2018-07-06T11:58:49.324Z,28.16
2018-07-06T12:01:16.195Z,28.27
2018-07-06T12:03:43.092Z,28.21
2018-07-06T12:06:10.031Z,27.61
2018-07-06T12:08:36.903Z,27.39
2018-07-06T12:11:04.431Z,27.63
2018-07-06T12:13:31.315Z,27.70
2018-07-06T12:15:58.436Z,27.61
2018-07-06T12:18:25.360Z,27.58
2018-07-06T12:20:52.237Z,27.94
2018-07-06T12:23:19.090Z,28.47
2018-07-06T12:25:47.040Z,28.16
2018-07-06T12:28:13.905Z,28.31
2018-07-06T12:31:27.344Z,28.08
2018-07-06T12:33:54.198Z,28.04
2018-07-06T12:36:21.114Z,28.22
2018-07-06T12:38:48.277Z,28.60
2018-07-06T12:41:15.173Z,28.63
2018-07-06T12:43:42.051Z,28.76
2018-07-06T12:46:08.939Z,28.18
2018-07-06T12:48:35.828Z,28.67
2018-07-06T12:51:02.698Z,28.71
2018-07-06T12:53:29.596Z,29.12
2018-07-06T12:55:56.692Z,29.86
2018-07-06T12:58:23.644Z,29.21
2018-07-06T13:00:50.476Z,28.85
2018-07-06T13:03:17.344Z,28.72
2018-07-06T13:05:44.239Z,28.41
2018-07-06T13:08:11.108Z,28.59
2018-07-06T13:10:38.673Z,28.66
2018-07-06T13:13:05.543Z,29.59
2018-07-06T13:15:32.407Z,29.39
2018-07-06T13:17:59.318Z,29.66
2018-07-06T13:20:26.185Z,30.65
2018-07-06T13:22:53.092Z,31.23
2018-07-06T13:25:20.045Z,30.94
2018-07-06T13:27:46.915Z,30.85
2018-07-06T13:30:14.357Z,30.69
2018-07-06T13:32:41.224Z,31.34
2018-07-06T13:35:08.179Z,28.86
2018-07-06T13:37:35.039Z,28.85
2018-07-06T13:40:01.922Z,28.98
2018-07-06T13:42:28.819Z,28.10
2018-07-06T13:44:55.676Z,28.24
2018-07-06T13:47:22.526Z,29.36
2018-07-06T13:49:49.379Z,29.58
2018-07-06T13:52:16.234Z,29.60
2018-07-06T13:54:43.131Z,29.91
2018-07-06T13:57:11.219Z,29.11
2018-07-06T13:59:38.095Z,29.69
2018-07-06T14:02:05.071Z,30.04
2018-07-06T14:04:31.947Z,30.04
2018-07-06T14:07:01.845Z,30.48
2018-07-06T14:09:28.713Z,30.39
2018-07-06T14:11:55.718Z,29.04
2018-07-06T14:14:25.599Z,29.01
2018-07-06T14:16:52.475Z,29.36
2018-07-06T14:19:19.342Z,29.12
2018-07-06T14:21:46.303Z,29.45
2018-07-06T14:24:13.371Z,30.04
2018-07-06T14:26:40.315Z,29.10
2018-07-06T14:29:07.175Z,28.51
2018-07-06T14:31:36.052Z,28.86
2018-07-06T14:34:06.196Z,28.54
2018-07-06T14:36:36.071Z,28.86
2018-07-06T14:39:04.208Z,28.48
2018-07-06T14:41:31.056Z,28.42
2018-07-06T14:43:57.923Z,28.28
2018-07-06T14:46:24.832Z,28.46
2018-07-06T14:48:51.732Z,28.46
2018-07-06T14:51:18.648Z,28.26
2018-07-06T14:53:45.505Z,28.03
2018-07-06T14:56:12.379Z,27.57
2018-07-06T14:58:39.239Z,27.91
2018-07-06T15:01:09.111Z,27.99
2018-07-06T15:03:35.975Z,27.69
2018-07-06T15:06:03.841Z,27.63
2018-07-06T15:08:30.700Z,27.53
2018-07-06T15:10:57.607Z,27.43
2018-07-06T15:13:25.570Z,27.98
2018-07-06T15:15:53.997Z,27.82
2018-07-06T15:18:20.868Z,27.79
2018-07-06T15:20:47.719Z,27.35
2018-07-06T15:23:14.600Z,27.79
2018-07-06T15:25:41.463Z,29.49
2018-07-06T15:28:08.331Z,31.41
2018-07-06T15:30:35.190Z,33.15
2018-07-06T15:33:02.067Z,34.14
2018-07-06T15:35:28.927Z,33.58
2018-07-06T15:37:55.799Z,33.73
2018-07-06T15:40:22.812Z,34.47
2018-07-06T15:42:53.205Z,33.93
2018-07-06T15:45:20.136Z,35.20
2018-07-06T15:47:47.039Z,34.97
2018-07-06T15:50:13.948Z,34.32
2018-07-06T15:52:40.791Z,33.60
2018-07-06T15:55:07.696Z,32.31
2018-07-06T15:57:34.642Z,31.48
2018-07-06T16:00:01.476Z,30.09
2018-07-06T16:02:28.336Z,29.66
2018-07-06T16:04:55.239Z,29.64
2018-07-06T16:07:22.155Z,29.36
2018-07-06T16:09:49.040Z,28.87
2018-07-06T16:12:15.903Z,28.54
2018-07-06T16:14:42.810Z,28.34
2018-07-06T16:17:09.672Z,28.04
2018-07-06T16:19:36.761Z,28.73
2018-07-06T16:22:03.631Z,28.36
2018-07-06T16:24:30.584Z,28.64
2018-07-06T16:26:57.505Z,28.77
2018-07-06T16:29:24.414Z,29.12
2018-07-06T16:31:51.354Z,31.37
2018-07-06T16:34:18.230Z,34.79
2018-07-06T16:36:45.116Z,36.04
2018-07-06T16:39:12.135Z,34.95
2018-07-06T16:41:40.031Z,36.14
2018-07-06T16:44:07.021Z,35.89
2018-07-06T16:46:33.864Z,36.03
2018-07-06T16:49:01.058Z,37.04
2018-07-06T16:51:27.943Z,37.50
2018-07-06T16:53:54.799Z,34.57
2018-07-06T16:56:21.668Z,32.58
2018-07-06T16:58:48.609Z,30.92
2018-07-06T17:01:15.501Z,30.54
2018-07-06T17:03:42.415Z,31.68
2018-07-06T17:06:09.283Z,32.65
2018-07-06T17:08:37.031Z,34.24
2018-07-06T17:11:03.948Z,34.24
2018-07-06T17:13:30.813Z,32.11
2018-07-06T17:15:57.715Z,33.22
2018-07-06T17:18:24.580Z,32.82
2018-07-06T17:20:51.439Z,33.30
2018-07-06T17:23:19.118Z,35.08
2018-07-06T17:25:45.991Z,35.09
2018-07-06T17:28:12.912Z,32.49
2018-07-06T17:30:39.795Z,34.29
2018-07-06T17:33:06.719Z,32.91
2018-07-06T17:35:33.578Z,33.64
2018-07-06T17:38:00.473Z,32.57
2018-07-06T17:40:33.603Z,32.02
2018-07-06T17:43:00.475Z,32.45
2018-07-06T17:45:29.852Z,31.08
2018-07-06T17:47:57.620Z,30.99
2018-07-06T17:50:24.557Z,30.90
2018-07-06T17:52:51.360Z,30.78
2018-07-06T17:55:18.223Z,30.83
2018-07-06T17:57:45.201Z,30.58
2018-07-06T18:00:12.076Z,30.11
2018-07-06T18:02:38.932Z,29.91
2018-07-06T18:05:05.794Z,29.90
2018-07-06T18:07:32.897Z,29.95
2018-07-06T18:09:59.715Z,29.80
2018-07-06T18:12:26.615Z,28.77
2018-07-06T18:14:53.527Z,29.46
2018-07-06T18:17:20.432Z,29.33
2018-07-06T18:19:47.339Z,29.37
2018-07-06T18:22:14.245Z,29.35
2018-07-06T18:24:41.148Z,29.77
2018-07-06T18:27:08.023Z,29.86
2018-07-06T18:29:34.948Z,29.72
2018-07-06T18:32:01.857Z,30.01
2018-07-06T18:34:28.719Z,29.16
2018-07-06T18:36:55.597Z,27.73
2018-07-06T18:39:22.496Z,27.06
2018-07-06T18:41:49.408Z,26.00
2018-07-06T18:44:16.282Z,25.59
2018-07-06T18:46:44.028Z,25.19
2018-07-06T18:49:10.898Z,24.95
2018-07-06T18:51:37.791Z,24.57
2018-07-06T18:54:04.658Z,24.92
2018-07-06T18:56:31.543Z,24.40
2018-07-06T18:58:58.410Z,24.25
2018-07-06T19:01:25.319Z,24.07
2018-07-06T19:03:52.146Z,23.87
2018-07-06T19:06:19.020Z,23.66
2018-07-06T19:08:46.020Z,23.64
2018-07-06T19:11:12.883Z,23.42
2018-07-06T19:13:39.743Z,23.28
2018-07-06T19:16:06.621Z,23.07
2018-07-06T19:18:33.477Z,22.83
2018-07-06T19:21:00.407Z,22.69
2018-07-06T19:23:27.307Z,22.34
2018-07-06T19:25:54.303Z,22.15
2018-07-06T19:28:21.185Z,22.01
2018-07-06T19:30:54.267Z,21.87
2018-07-06T19:33:21.095Z,21.81
2018-07-06T19:35:48.516Z,21.52
2018-07-06T19:38:15.374Z,21.37
2018-07-06T19:40:42.235Z,21.35
2018-07-06T19:43:16.620Z,21.40
2018-07-06T19:45:43.492Z,21.13
2018-07-06T19:48:10.412Z,21.07
2018-07-06T19:50:37.268Z,20.86
2018-07-06T19:53:04.211Z,20.71
2018-07-06T19:55:31.652Z,20.45
2018-07-06T19:57:58.528Z,20.44
2018-07-06T20:00:25.463Z,20.43
2018-07-06T20:02:52.569Z,20.31
2018-07-06T20:05:19.483Z,20.22
2018-07-06T20:07:46.379Z,20.10
2018-07-06T20:10:13.211Z,20.06
2018-07-06T20:12:43.091Z,19.99
2018-07-06T20:15:09.980Z,19.77
2018-07-06T20:17:36.823Z,19.82
2018-07-06T20:20:05.933Z,19.88
2018-07-06T20:22:32.775Z,19.77
2018-07-06T20:24:59.645Z,19.67
2018-07-06T20:27:26.511Z,19.94
2018-07-06T20:29:53.371Z,20.06
2018-07-06T20:32:20.223Z,19.47
2018-07-06T20:34:47.097Z,19.23
2018-07-06T20:37:13.963Z,19.11
2018-07-06T20:39:40.851Z,19.08
2018-07-06T20:42:07.771Z,19.02
2018-07-06T20:44:34.626Z,18.86
2018-07-06T20:47:01.524Z,18.85
2018-07-06T20:49:28.383Z,18.82
2018-07-06T20:51:55.238Z,18.89
2018-07-06T20:54:22.132Z,18.75
2018-07-06T20:56:49.000Z,18.98
2018-07-06T20:59:15.863Z,19.02
2018-07-06T21:01:42.719Z,18.88
2018-07-06T21:04:09.716Z,18.76
2018-07-06T21:06:37.218Z,18.73
2018-07-06T21:09:05.371Z,18.65
2018-07-06T21:11:32.253Z,18.59
2018-07-06T21:13:59.106Z,18.67
2018-07-06T21:16:26.012Z,18.55
2018-07-06T21:18:53.119Z,18.55
2018-07-06T21:21:19.970Z,18.56
2018-07-06T21:23:46.817Z,18.48
2018-07-06T21:26:13.667Z,19.02
2018-07-06T21:28:42.160Z,18.61
2018-07-06T21:31:09.003Z,18.37
2018-07-06T21:33:35.850Z,18.42
2018-07-06T21:36:02.904Z,18.29
2018-07-06T21:38:29.772Z,18.84
2018-07-06T21:40:56.630Z,18.26
2018-07-06T21:43:23.508Z,18.04
2018-07-06T21:45:50.359Z,18.07
2018-07-06T21:48:17.247Z,18.15
2018-07-06T21:50:44.108Z,18.20
2018-07-06T21:53:11.057Z,18.22
2018-07-06T21:55:37.843Z,18.29
2018-07-06T21:58:04.699Z,18.91
2018-07-06T22:00:37.951Z,18.38
2018-07-06T22:03:05.351Z,18.27
2018-07-06T22:05:32.220Z,18.08
2018-07-06T22:07:59.284Z,18.07
2018-07-06T22:10:26.131Z,18.10
2018-07-06T22:12:52.967Z,18.10
2018-07-06T22:15:19.852Z,18.22
2018-07-06T22:17:46.811Z,18.16
2018-07-06T22:20:13.665Z,18.18
2018-07-06T22:22:40.585Z,18.12
2018-07-06T22:25:07.391Z,17.99
2018-07-06T22:27:34.228Z,17.92
2018-07-06T22:30:01.079Z,17.97
2018-07-06T22:32:27.943Z,18.02
2018-07-06T22:34:54.766Z,18.16
2018-07-06T22:37:23.127Z,18.11
2018-07-06T22:39:54.048Z,18.14
2018-07-06T22:42:22.734Z,18.09
2018-07-06T22:44:49.632Z,18.45
2018-07-06T22:47:16.495Z,18.13
2018-07-06T22:49:43.347Z,18.06
2018-07-06T22:52:10.206Z,17.88
2018-07-06T22:54:37.103Z,17.97
2018-07-06T22:57:03.971Z,18.07
2018-07-06T22:59:30.831Z,18.08
2018-07-06T23:01:57.686Z,18.11
2018-07-06T23:04:24.557Z,18.17
2018-07-06T23:06:51.427Z,18.18
2018-07-06T23:09:18.271Z,18.25
2018-07-06T23:11:45.147Z,18.56
2018-07-06T23:14:12.000Z,18.20
2018-07-06T23:16:38.848Z,17.99
2018-07-06T23:19:05.707Z,17.80
2018-07-06T23:21:32.559Z,17.74
2018-07-06T23:23:59.432Z,17.71
2018-07-06T23:26:26.288Z,17.78
2018-07-06T23:28:53.183Z,17.90
2018-07-06T23:31:20.059Z,17.91
2018-07-06T23:33:46.919Z,17.92
2018-07-06T23:36:13.788Z,17.89
2018-07-06T23:38:40.643Z,17.79
2018-07-06T23:41:07.500Z,17.71
2018-07-06T23:43:34.364Z,17.72
2018-07-06T23:46:01.311Z,17.72
2018-07-06T23:48:28.191Z,17.78
2018-07-06T23:50:55.048Z,17.79
2018-07-06T23:53:21.891Z,17.70
2018-07-06T23:55:48.780Z,17.73
2018-07-06T23:58:15.688Z,17.66
